KAPGKDAA

Guest
Details From KAPG - PHILLIPS AAF
To KDAA - DAVISON AAF
Flight Number -
Tags generated
Created
Modified
Stats Distance 65 nm / 121 km
Max Altitude 2,300 ft / 701 m
Waypoints 3
Social Downloads 0
Likes 0
Share VATSIM

Download

Looking for another format? Having issues loading an existing format? Contact us
Advertisement - Login to hide

Notes

Basic altitude profile: - Ascent Rate: 2500ft/min - Ascent Speed: 250kts - Cruise Altitude: 35000ft - Cruise Speed: 420kts - Descent Rate: 1500ft/min - Descent Speed: 250kts Options: - Use NATs: yes - Use PACOTS: yes - Use low airways: yes - Use high airways: yes

Route

KAPG DCA KDAA

ID Type Via Altitude Latitude Longitude Leg Dist Tot Dist Heading (true) Name
O KAPG APT - 0 ft / 0 m 39.46641˚ -76.16888˚ - 0 nm - PHILLIPS AAF
DCA VOR - 2,300 ft / 701 m 38.85944˚ -77.03644˚ 54 nm 54 nm 228° / 228° WASHINGTON VOR-DME
O KDAA APT - 0 ft / 0 m 38.71511˚ -77.18114˚ 11 nm 65 nm 218° / 218° DAVISON AAF

Altitude Profile

Advertisement - Login to hide

KAPG

Details ICAO KAPG (APG)
Name PHILLIPS AAF
Region United States
Timezone America/New_York (UTC-5.0)
Stats Elevation 57 ft / 17 m (AMSL)
Location 39.466410° -76.168881°
Runways 3
Magnetic Variation 11.455° W

METAR

KAPG 181658Z 20003KT 10SM BKN060 BKN150 08/02 A3007 RMK AO2A SLPNO $

Decode

TAF

Not found

Departure Runways

ID Width Length Bearing (true) Bearing (mag) Surface Threshold Offset Overrun Length
04 200 ft / 61 m 8,007 ft / 2,441 m 28.34° 39.80° Asphalt 0 ft / 0 m 200 ft / 61 m
08 149 ft / 45 m 4,841 ft / 1,476 m 71.37° 82.83° Asphalt 0 ft / 0 m 0 ft / 0 m
17 149 ft / 45 m 5,013 ft / 1,528 m 161.50° 172.96° Asphalt 0 ft / 0 m 0 ft / 0 m
22 200 ft / 61 m 8,007 ft / 2,441 m 208.35° 219.81° Asphalt 0 ft / 0 m 200 ft / 61 m
26 149 ft / 45 m 4,841 ft / 1,476 m 251.38° 262.84° Asphalt 0 ft / 0 m 0 ft / 0 m
35 149 ft / 45 m 5,013 ft / 1,528 m 341.50° 352.96° Asphalt 0 ft / 0 m 0 ft / 0 m

KDAA

Details ICAO KDAA
Name DAVISON AAF
Region United States
Timezone America/New_York (UTC-5.0)
Stats Elevation 73 ft / 22 m (AMSL)
Location 38.715111° -77.181145°
Runways 1
Magnetic Variation 10.709° W

METAR

KDAA 181656Z AUTO 12004KT 10SM CLR 13/02 A3006 RMK AO2 SLP183 T01290016 $

Decode

TAF

TAF TAF KDAA 181000Z 1810/1916 VRB06KT 9999 BKN050 620504 QNH3008INS WND 28006KT AFT 1812 BECMG 1900/1901 24006KT 9999 BKN035 QNH3000INS BECMG 1914/1915 24012KT 9999 SCT025 QNH2999INS TX07/1818Z TN02/1909Z

Decode

Destination Runways

ID Width Length Bearing (true) Bearing (mag) Surface Threshold Offset Overrun Length
14 74 ft / 23 m 5,618 ft / 1,712 m 133.59° 144.30° Asphalt 687 ft / 209 m 500 ft / 152 m
32 74 ft / 23 m 5,618 ft / 1,712 m 313.60° 324.31° Asphalt 891 ft / 272 m 200 ft / 61 m

Approach Navaids

Runway Type Ident Frequency Range Bearing (true) Bearing (mag) Slope Elevation
32 Localiser IDAA 108.90 MHz 18 nm / 33 km 313.58° 324.29° - 50 ft / 15 m (AMSL)
32 Glidescope IDAA 108.90 MHz 10 nm / 19 km 313.60° 324.31° 3.00° 57 ft / 17 m (AMSL)